sensor_id;sensor_type;location;lat;lon;timestamp;pressure;altitude;pressure_sealevel;temperature;humidity
41688;BME280;27371;42.686;23.362;2022-08-04T00:00:11;95009.75;;;18.91;86.40
41688;BME280;27371;42.686;23.362;2022-08-04T00:02:58;95020.59;;;18.89;86.25
41688;BME280;27371;42.686;23.362;2022-08-04T00:10:48;95015.91;;;18.84;86.26
41688;BME280;27371;42.686;23.362;2022-08-04T00:13:15;95017.50;;;18.80;87.11
41688;BME280;27371;42.686;23.362;2022-08-04T00:15:41;95009.22;;;18.80;87.44
41688;BME280;27371;42.686;23.362;2022-08-04T00:18:08;95014.34;;;18.76;87.56
41688;BME280;27371;42.686;23.362;2022-08-04T00:20:40;95008.38;;;18.72;88.37
41688;BME280;27371;42.686;23.362;2022-08-04T00:23:07;95010.38;;;18.71;88.34
41688;BME280;27371;42.686;23.362;2022-08-04T00:25:37;95006.50;;;18.66;88.34
41688;BME280;27371;42.686;23.362;2022-08-04T00:28:03;95000.00;;;18.64;88.37
41688;BME280;27371;42.686;23.362;2022-08-04T00:30:29;95000.31;;;18.60;88.08
41688;BME280;27371;42.686;23.362;2022-08-04T00:32:56;95016.03;;;18.65;88.15
41688;BME280;27371;42.686;23.362;2022-08-04T00:35:22;95005.53;;;18.64;87.72
41688;BME280;27371;42.686;23.362;2022-08-04T00:37:48;95013.16;;;18.58;87.37
41688;BME280;27371;42.686;23.362;2022-08-04T00:40:24;95021.88;;;18.62;87.02
41688;BME280;27371;42.686;23.362;2022-08-04T00:56:21;95019.22;;;18.30;87.31
41688;BME280;27371;42.686;23.362;2022-08-04T01:13:05;95021.72;;;17.88;85.92
41688;BME280;27371;42.686;23.362;2022-08-04T01:15:39;95036.09;;;17.80;84.70
41688;BME280;27371;42.686;23.362;2022-08-04T01:18:17;95032.66;;;17.74;84.30
41688;BME280;27371;42.686;23.362;2022-08-04T01:27:05;95026.56;;;17.82;83.96
41688;BME280;27371;42.686;23.362;2022-08-04T01:29:37;95028.50;;;17.87;83.74
41688;BME280;27371;42.686;23.362;2022-08-04T01:32:16;95014.91;;;17.89;84.21
41688;BME280;27371;42.686;23.362;2022-08-04T01:34:50;95014.72;;;17.87;84.16
41688;BME280;27371;42.686;23.362;2022-08-04T01:40:00;95020.31;;;17.81;84.46
41688;BME280;27371;42.686;23.362;2022-08-04T01:42:30;95026.41;;;17.74;84.65
41688;BME280;27371;42.686;23.362;2022-08-04T01:44:57;95015.81;;;17.65;84.63
41688;BME280;27371;42.686;23.362;2022-08-04T01:47:28;95030.91;;;17.58;84.29
41688;BME280;27371;42.686;23.362;2022-08-04T01:49:54;95031.53;;;17.51;84.85
41688;BME280;27371;42.686;23.362;2022-08-04T01:52:26;95027.75;;;17.35;85.81
41688;BME280;27371;42.686;23.362;2022-08-04T01:54:52;95019.75;;;17.18;86.32
41688;BME280;27371;42.686;23.362;2022-08-04T01:57:18;95026.66;;;17.25;87.04
41688;BME280;27371;42.686;23.362;2022-08-04T01:59:44;95021.97;;;17.20;86.53
41688;BME280;27371;42.686;23.362;2022-08-04T02:02:11;95026.50;;;17.17;86.90
41688;BME280;27371;42.686;23.362;2022-08-04T02:04:37;95011.78;;;17.14;87.09
41688;BME280;27371;42.686;23.362;2022-08-04T02:09:38;95017.88;;;17.26;86.78
41688;BME280;27371;42.686;23.362;2022-08-04T02:22:40;95006.81;;;17.13;86.26
41688;BME280;27371;42.686;23.362;2022-08-04T02:25:09;95007.38;;;17.25;85.95
41688;BME280;27371;42.686;23.362;2022-08-04T02:27:56;95017.88;;;17.26;85.42
41688;BME280;27371;42.686;23.362;2022-08-04T02:30:39;95008.09;;;17.12;85.28
41688;BME280;27371;42.686;23.362;2022-08-04T02:33:10;95015.72;;;17.00;85.50
41688;BME280;27371;42.686;23.362;2022-08-04T02:35:38;95008.25;;;16.82;86.17
41688;BME280;27371;42.686;23.362;2022-08-04T02:38:15;95010.34;;;16.70;86.99
41688;BME280;27371;42.686;23.362;2022-08-04T02:40:43;95024.09;;;16.70;87.54
41688;BME280;27371;42.686;23.362;2022-08-04T02:43:11;95019.78;;;16.75;87.31
41688;BME280;27371;42.686;23.362;2022-08-04T02:45:40;95009.91;;;16.66;87.44
41688;BME280;27371;42.686;23.362;2022-08-04T02:48:09;95003.56;;;16.52;87.40
41688;BME280;27371;42.686;23.362;2022-08-04T02:50:36;95024.22;;;16.59;87.33
41688;BME280;27371;42.686;23.362;2022-08-04T02:53:03;95019.25;;;16.57;86.81
41688;BME280;27371;42.686;23.362;2022-08-04T02:55:30;95021.47;;;16.59;86.47
41688;BME280;27371;42.686;23.362;2022-08-04T02:57:57;95020.31;;;16.54;86.20
41688;BME280;27371;42.686;23.362;2022-08-04T03:00:25;95016.34;;;16.50;86.17
41688;BME280;27371;42.686;23.362;2022-08-04T03:05:36;95024.59;;;16.50;86.51
41688;BME280;27371;42.686;23.362;2022-08-04T03:11:09;95021.63;;;16.66;86.31
41688;BME280;27371;42.686;23.362;2022-08-04T03:17:18;95025.75;;;16.79;86.07
41688;BME280;27371;42.686;23.362;2022-08-04T03:59:14;95035.56;;;17.31;84.62
41688;BME280;27371;42.686;23.362;2022-08-04T04:10:06;95033.19;;;18.05;82.73
41688;BME280;27371;42.686;23.362;2022-08-04T04:34:15;95062.66;;;20.84;67.17
41688;BME280;27371;42.686;23.362;2022-08-04T04:47:54;95063.22;;;21.27;64.48
41688;BME280;27371;42.686;23.362;2022-08-04T04:53:19;95068.31;;;20.71;66.28
41688;BME280;27371;42.686;23.362;2022-08-04T04:55:58;95050.88;;;20.55;66.67
41688;BME280;27371;42.686;23.362;2022-08-04T04:58:30;95052.66;;;20.53;67.37
41688;BME280;27371;42.686;23.362;2022-08-04T05:09:35;95069.56;;;20.41;67.95
41688;BME280;27371;42.686;23.362;2022-08-04T05:14:35;95073.25;;;20.15;69.44
41688;BME280;27371;42.686;23.362;2022-08-04T05:17:24;95076.19;;;20.17;69.38
41688;BME280;27371;42.686;23.362;2022-08-04T05:19:58;95070.88;;;19.98;69.50
41688;BME280;27371;42.686;23.362;2022-08-04T05:22:36;95064.41;;;19.75;69.22
41688;BME280;27371;42.686;23.362;2022-08-04T05:25:06;95061.94;;;19.50;71.55
41688;BME280;27371;42.686;23.362;2022-08-04T05:27:39;95067.94;;;19.62;71.75
41688;BME280;27371;42.686;23.362;2022-08-04T05:30:06;95078.31;;;20.03;71.02
41688;BME280;27371;42.686;23.362;2022-08-04T05:32:54;95071.94;;;20.37;69.20
41688;BME280;27371;42.686;23.362;2022-08-04T05:35:32;95074.94;;;20.68;69.03
41688;BME280;27371;42.686;23.362;2022-08-04T05:38:00;95084.94;;;21.07;67.05
41688;BME280;27371;42.686;23.362;2022-08-04T05:40:27;95074.53;;;21.37;64.85
41688;BME280;27371;42.686;23.362;2022-08-04T05:42:55;95076.63;;;21.67;64.89
41688;BME280;27371;42.686;23.362;2022-08-04T05:45:21;95082.25;;;21.97;63.74
41688;BME280;27371;42.686;23.362;2022-08-04T05:47:50;95086.34;;;22.27;62.78
41688;BME280;27371;42.686;23.362;2022-08-04T05:50:17;95085.41;;;22.17;62.07
41688;BME280;27371;42.686;23.362;2022-08-04T05:52:43;95080.25;;;22.29;62.05
41688;BME280;27371;42.686;23.362;2022-08-04T05:55:10;95076.34;;;22.55;60.13
41688;BME280;27371;42.686;23.362;2022-08-04T05:57:40;95083.00;;;22.67;61.08
41688;BME280;27371;42.686;23.362;2022-08-04T06:00:07;95085.91;;;23.07;59.94
41688;BME280;27371;42.686;23.362;2022-08-04T06:02:34;95097.75;;;23.48;58.69
41688;BME280;27371;42.686;23.362;2022-08-04T06:05:01;95095.81;;;23.74;57.52
41688;BME280;27371;42.686;23.362;2022-08-04T06:07:30;95098.69;;;23.91;56.91
41688;BME280;27371;42.686;23.362;2022-08-04T06:09:55;95081.69;;;23.80;56.96
41688;BME280;27371;42.686;23.362;2022-08-04T06:12:24;95098.00;;;23.83;56.30
41688;BME280;27371;42.686;23.362;2022-08-04T06:14:54;95081.63;;;23.54;57.15
41688;BME280;27371;42.686;23.362;2022-08-04T06:17:31;95078.94;;;23.31;57.56
41688;BME280;27371;42.686;23.362;2022-08-04T06:19:58;95085.44;;;23.26;57.93
41688;BME280;27371;42.686;23.362;2022-08-04T06:22:28;95091.78;;;23.19;57.77
41688;BME280;27371;42.686;23.362;2022-08-04T06:24:54;95088.69;;;22.77;58.73
41688;BME280;27371;42.686;23.362;2022-08-04T06:27:23;95089.28;;;22.52;60.45
41688;BME280;27371;42.686;23.362;2022-08-04T06:29:49;95087.06;;;22.66;60.46
41688;BME280;27371;42.686;23.362;2022-08-04T06:32:17;95094.09;;;22.67;60.23
41688;BME280;27371;42.686;23.362;2022-08-04T06:34:58;95104.09;;;22.70;60.57
41688;BME280;27371;42.686;23.362;2022-08-04T06:37:26;95092.25;;;22.62;61.14
41688;BME280;27371;42.686;23.362;2022-08-04T06:39:53;95087.97;;;22.68;60.35
41688;BME280;27371;42.686;23.362;2022-08-04T06:42:21;95093.34;;;22.74;61.05
41688;BME280;27371;42.686;23.362;2022-08-04T06:44:50;95100.91;;;22.89;60.77
41688;BME280;27371;42.686;23.362;2022-08-04T06:47:17;95101.78;;;23.15;59.42
41688;BME280;27371;42.686;23.362;2022-08-04T06:49:47;95098.41;;;23.24;58.41
41688;BME280;27371;42.686;23.362;2022-08-04T06:52:15;95103.66;;;23.04;59.09
41688;BME280;27371;42.686;23.362;2022-08-04T06:54:50;95109.22;;;23.04;58.78
41688;BME280;27371;42.686;23.362;2022-08-04T06:57:19;95099.63;;;22.98;58.01
41688;BME280;27371;42.686;23.362;2022-08-04T06:59:47;95092.44;;;22.72;59.20
41688;BME280;27371;42.686;23.362;2022-08-04T07:02:15;95096.88;;;22.75;60.28
41688;BME280;27371;42.686;23.362;2022-08-04T07:04:43;95107.22;;;22.74;59.65
41688;BME280;27371;42.686;23.362;2022-08-04T07:07:10;95104.44;;;22.97;58.89
41688;BME280;27371;42.686;23.362;2022-08-04T07:09:36;95100.53;;;23.08;57.75
41688;BME280;27371;42.686;23.362;2022-08-04T07:12:04;95091.03;;;23.19;57.37
41688;BME280;27371;42.686;23.362;2022-08-04T07:14:30;95093.97;;;23.21;57.51
41688;BME280;27371;42.686;23.362;2022-08-04T07:16:57;95101.69;;;23.38;57.50
41688;BME280;27371;42.686;23.362;2022-08-04T07:19:23;95105.66;;;23.60;57.09
41688;BME280;27371;42.686;23.362;2022-08-04T07:21:49;95100.63;;;24.06;55.99
41688;BME280;27371;42.686;23.362;2022-08-04T07:24:15;95089.94;;;24.20;54.48
41688;BME280;27371;42.686;23.362;2022-08-04T07:26:41;95095.72;;;24.39;53.96
41688;BME280;27371;42.686;23.362;2022-08-04T07:29:06;95099.78;;;24.46;53.52
41688;BME280;27371;42.686;23.362;2022-08-04T07:31:32;95098.75;;;24.34;53.90
41688;BME280;27371;42.686;23.362;2022-08-04T07:33:59;95085.88;;;24.46;53.74
41688;BME280;27371;42.686;23.362;2022-08-04T07:36:25;95076.47;;;24.59;53.54
41688;BME280;27371;42.686;23.362;2022-08-04T07:38:54;95097.63;;;24.62;53.07
41688;BME280;27371;42.686;23.362;2022-08-04T07:41:22;95100.41;;;24.97;52.83
41688;BME280;27371;42.686;23.362;2022-08-04T07:43:49;95098.06;;;25.28;52.38
41688;BME280;27371;42.686;23.362;2022-08-04T07:46:15;95088.38;;;25.46;51.42
41688;BME280;27371;42.686;23.362;2022-08-04T07:48:40;95083.50;;;25.20;51.01
41688;BME280;27371;42.686;23.362;2022-08-04T07:51:06;95094.38;;;25.43;50.73
41688;BME280;27371;42.686;23.362;2022-08-04T07:53:33;95102.91;;;25.45;50.33
41688;BME280;27371;42.686;23.362;2022-08-04T07:56:08;95088.09;;;25.52;49.99
41688;BME280;27371;42.686;23.362;2022-08-04T07:58:35;95088.09;;;25.52;50.82
41688;BME280;27371;42.686;23.362;2022-08-04T08:01:02;95088.84;;;25.52;51.58
41688;BME280;27371;42.686;23.362;2022-08-04T08:03:28;95085.84;;;25.41;51.19
41688;BME280;27371;42.686;23.362;2022-08-04T08:05:53;95087.22;;;25.49;51.25
41688;BME280;27371;42.686;23.362;2022-08-04T08:08:19;95079.19;;;25.81;50.05
41688;BME280;27371;42.686;23.362;2022-08-04T08:10:49;95083.28;;;26.07;48.50
41688;BME280;27371;42.686;23.362;2022-08-04T08:13:15;95093.13;;;26.44;47.45
41688;BME280;27371;42.686;23.362;2022-08-04T08:15:43;95093.38;;;26.76;46.57
41688;BME280;27371;42.686;23.362;2022-08-04T08:18:09;95093.69;;;26.90;45.52
41688;BME280;27371;42.686;23.362;2022-08-04T08:20:35;95086.34;;;26.94;45.31
41688;BME280;27371;42.686;23.362;2022-08-04T08:23:01;95098.13;;;27.02;45.21
41688;BME280;27371;42.686;23.362;2022-08-04T08:25:29;95087.53;;;27.20;44.84
41688;BME280;27371;42.686;23.362;2022-08-04T08:27:54;95095.34;;;27.41;44.32
41688;BME280;27371;42.686;23.362;2022-08-04T08:30:20;95094.72;;;27.52;44.36
41688;BME280;27371;42.686;23.362;2022-08-04T08:32:46;95099.00;;;27.63;43.29
41688;BME280;27371;42.686;23.362;2022-08-04T08:35:11;95099.31;;;27.28;43.29
41688;BME280;27371;42.686;23.362;2022-08-04T08:37:46;95098.25;;;26.95;43.75
41688;BME280;27371;42.686;23.362;2022-08-04T08:40:34;95100.66;;;27.27;43.58
41688;BME280;27371;42.686;23.362;2022-08-04T08:43:22;95085.03;;;27.44;42.95
41688;BME280;27371;42.686;23.362;2022-08-04T08:46:19;95099.72;;;27.64;42.07
41688;BME280;27371;42.686;23.362;2022-08-04T08:52:14;95095.44;;;27.82;41.13
41688;BME280;27371;42.686;23.362;2022-08-04T09:00:03;95090.47;;;28.12;40.79
41688;BME280;27371;42.686;23.362;2022-08-04T09:06:01;95079.88;;;28.10;41.00
41688;BME280;27371;42.686;23.362;2022-08-04T09:11:49;95083.72;;;28.36;40.93
41688;BME280;27371;42.686;23.362;2022-08-04T09:14:25;95089.91;;;28.45;40.04
41688;BME280;27371;42.686;23.362;2022-08-04T09:16:54;95086.78;;;28.50;38.62
41688;BME280;27371;42.686;23.362;2022-08-04T09:19:39;95085.06;;;28.45;38.88
41688;BME280;27371;42.686;23.362;2022-08-04T09:22:18;95079.25;;;28.53;38.23
41688;BME280;27371;42.686;23.362;2022-08-04T09:27:18;95072.88;;;28.83;37.58
41688;BME280;27371;42.686;23.362;2022-08-04T09:37:51;95064.50;;;29.71;35.93
41688;BME280;27371;42.686;23.362;2022-08-04T09:40:28;95071.97;;;29.79;35.59
41688;BME280;27371;42.686;23.362;2022-08-04T09:45:44;95070.72;;;29.70;35.21
41688;BME280;27371;42.686;23.362;2022-08-04T09:48:30;95066.97;;;29.89;34.90
41688;BME280;27371;42.686;23.362;2022-08-04T09:50:58;95071.88;;;30.12;34.79
41688;BME280;27371;42.686;23.362;2022-08-04T09:58:52;95071.63;;;29.96;35.17
41688;BME280;27371;42.686;23.362;2022-08-04T10:01:24;95073.97;;;30.00;34.02
41688;BME280;27371;42.686;23.362;2022-08-04T10:04:01;95064.03;;;29.87;34.14
41688;BME280;27371;42.686;23.362;2022-08-04T10:07:50;95073.31;;;29.89;34.31
41688;BME280;27371;42.686;23.362;2022-08-04T10:12:48;95059.41;;;29.91;33.60
41688;BME280;27371;42.686;23.362;2022-08-04T10:18:02;95067.72;;;30.13;33.92
41688;BME280;27371;42.686;23.362;2022-08-04T10:24:04;95064.94;;;30.48;32.41
41688;BME280;27371;42.686;23.362;2022-08-04T10:26:34;95048.19;;;30.50;31.26
41688;BME280;27371;42.686;23.362;2022-08-04T10:32:15;95046.72;;;30.61;30.18
41688;BME280;27371;42.686;23.362;2022-08-04T10:34:51;95046.00;;;30.49;30.34
41688;BME280;27371;42.686;23.362;2022-08-04T10:37:23;95036.34;;;30.40;31.45
41688;BME280;27371;42.686;23.362;2022-08-04T10:40:02;95039.66;;;30.36;31.74
41688;BME280;27371;42.686;23.362;2022-08-04T10:42:57;95041.75;;;30.36;31.84
41688;BME280;27371;42.686;23.362;2022-08-04T10:45:38;95046.16;;;30.27;31.28
41688;BME280;27371;42.686;23.362;2022-08-04T10:48:12;95040.13;;;30.21;30.65
41688;BME280;27371;42.686;23.362;2022-08-04T10:53:42;95049.03;;;30.17;30.42
41688;BME280;27371;42.686;23.362;2022-08-04T10:56:21;95036.59;;;30.21;29.85
41688;BME280;27371;42.686;23.362;2022-08-04T10:59:03;95039.41;;;30.21;30.06
41688;BME280;27371;42.686;23.362;2022-08-04T11:01:35;95040.88;;;30.33;27.73
41688;BME280;27371;42.686;23.362;2022-08-04T11:04:14;95041.00;;;30.00;27.36
41688;BME280;27371;42.686;23.362;2022-08-04T11:06:42;95039.63;;;30.01;28.26
41688;BME280;27371;42.686;23.362;2022-08-04T11:09:08;95027.69;;;30.01;27.93
41688;BME280;27371;42.686;23.362;2022-08-04T11:12:13;95028.75;;;29.95;27.49
41688;BME280;27371;42.686;23.362;2022-08-04T11:15:04;95029.03;;;30.00;28.75
41688;BME280;27371;42.686;23.362;2022-08-04T11:17:34;95020.84;;;29.92;30.32
41688;BME280;27371;42.686;23.362;2022-08-04T11:20:03;95028.63;;;29.82;30.82
41688;BME280;27371;42.686;23.362;2022-08-04T11:22:40;95019.00;;;29.85;28.84
41688;BME280;27371;42.686;23.362;2022-08-04T11:28:24;95018.84;;;29.83;28.97
41688;BME280;27371;42.686;23.362;2022-08-04T11:30:58;95011.41;;;29.76;29.73
41688;BME280;27371;42.686;23.362;2022-08-04T11:33:40;95011.91;;;29.84;29.91
41688;BME280;27371;42.686;23.362;2022-08-04T11:38:57;95003.63;;;29.86;30.13
41688;BME280;27371;42.686;23.362;2022-08-04T11:41:38;95000.78;;;29.74;29.34
41688;BME280;27371;42.686;23.362;2022-08-04T11:44:05;94992.44;;;29.52;28.91
41688;BME280;27371;42.686;23.362;2022-08-04T11:46:39;95008.91;;;29.46;28.71
41688;BME280;27371;42.686;23.362;2022-08-04T11:51:57;95009.09;;;29.72;30.67
41688;BME280;27371;42.686;23.362;2022-08-04T11:54:24;95009.94;;;29.74;31.34
41688;BME280;27371;42.686;23.362;2022-08-04T11:56:54;95000.75;;;29.62;31.02
41688;BME280;27371;42.686;23.362;2022-08-04T11:59:21;94991.47;;;29.48;31.56
41688;BME280;27371;42.686;23.362;2022-08-04T12:04:44;94998.66;;;29.51;29.96
41688;BME280;27371;42.686;23.362;2022-08-04T12:07:23;95006.94;;;29.49;29.52
41688;BME280;27371;42.686;23.362;2022-08-04T12:19:00;95004.13;;;29.37;30.22
41688;BME280;27371;42.686;23.362;2022-08-04T12:24:00;94998.34;;;29.23;29.98
41688;BME280;27371;42.686;23.362;2022-08-04T12:26:32;95005.56;;;29.26;30.46
41688;BME280;27371;42.686;23.362;2022-08-04T12:29:01;95000.69;;;29.39;29.16
41688;BME280;27371;42.686;23.362;2022-08-04T12:34:06;95002.41;;;29.44;29.74
41688;BME280;27371;42.686;23.362;2022-08-04T12:39:20;94988.16;;;29.40;30.58
41688;BME280;27371;42.686;23.362;2022-08-04T12:42:10;94985.22;;;29.38;29.03
41688;BME280;27371;42.686;23.362;2022-08-04T12:44:40;94983.63;;;29.35;29.58
41688;BME280;27371;42.686;23.362;2022-08-04T12:47:11;94981.41;;;29.33;29.50
41688;BME280;27371;42.686;23.362;2022-08-04T12:49:41;94978.84;;;29.25;29.26
41688;BME280;27371;42.686;23.362;2022-08-04T12:52:08;94980.19;;;29.24;29.42
41688;BME280;27371;42.686;23.362;2022-08-04T12:54:36;94977.53;;;29.38;29.88
41688;BME280;27371;42.686;23.362;2022-08-04T12:57:05;94971.69;;;29.46;29.90
41688;BME280;27371;42.686;23.362;2022-08-04T12:59:38;94964.72;;;29.47;29.84
41688;BME280;27371;42.686;23.362;2022-08-04T13:02:05;94960.25;;;29.53;29.05
41688;BME280;27371;42.686;23.362;2022-08-04T13:04:37;94969.16;;;29.50;28.69
41688;BME280;27371;42.686;23.362;2022-08-04T13:07:10;94973.91;;;29.59;28.28
41688;BME280;27371;42.686;23.362;2022-08-04T13:09:39;94961.47;;;29.50;29.17
41688;BME280;27371;42.686;23.362;2022-08-04T13:12:22;94965.63;;;29.61;29.17
41688;BME280;27371;42.686;23.362;2022-08-04T13:14:51;94963.94;;;29.80;28.60
41688;BME280;27371;42.686;23.362;2022-08-04T13:17:18;94948.94;;;29.87;28.59
41688;BME280;27371;42.686;23.362;2022-08-04T13:19:48;94969.94;;;29.98;28.48
41688;BME280;27371;42.686;23.362;2022-08-04T13:22:24;94961.00;;;30.01;28.66
41688;BME280;27371;42.686;23.362;2022-08-04T13:24:54;94948.31;;;30.24;28.46
41688;BME280;27371;42.686;23.362;2022-08-04T13:27:22;94952.22;;;30.30;28.46
41688;BME280;27371;42.686;23.362;2022-08-04T13:29:50;94960.97;;;30.48;28.58
41688;BME280;27371;42.686;23.362;2022-08-04T13:32:21;94960.00;;;30.44;28.25
41688;BME280;27371;42.686;23.362;2022-08-04T13:34:48;94956.94;;;30.39;28.11
41688;BME280;27371;42.686;23.362;2022-08-04T13:37:16;94952.19;;;30.42;28.20
41688;BME280;27371;42.686;23.362;2022-08-04T13:39:48;94945.22;;;30.43;28.51
41688;BME280;27371;42.686;23.362;2022-08-04T13:42:15;94937.31;;;30.28;28.09
41688;BME280;27371;42.686;23.362;2022-08-04T13:44:47;94948.94;;;30.22;27.15
41688;BME280;27371;42.686;23.362;2022-08-04T13:47:15;94932.19;;;30.01;27.47
41688;BME280;27371;42.686;23.362;2022-08-04T13:50:09;94939.78;;;29.86;27.46
41688;BME280;27371;42.686;23.362;2022-08-04T13:52:35;94939.16;;;29.64;27.85
41688;BME280;27371;42.686;23.362;2022-08-04T13:55:01;94927.28;;;29.54;28.73
41688;BME280;27371;42.686;23.362;2022-08-04T13:57:30;94929.88;;;29.62;29.21
41688;BME280;27371;42.686;23.362;2022-08-04T14:00:04;94923.66;;;29.63;29.48
41688;BME280;27371;42.686;23.362;2022-08-04T14:02:40;94923.41;;;29.59;29.63
41688;BME280;27371;42.686;23.362;2022-08-04T14:07:50;94926.06;;;29.57;29.62
41688;BME280;27371;42.686;23.362;2022-08-04T14:10:18;94915.44;;;29.44;29.25
41688;BME280;27371;42.686;23.362;2022-08-04T14:12:47;94916.19;;;29.56;29.35
41688;BME280;27371;42.686;23.362;2022-08-04T14:18:15;94918.19;;;29.89;29.01
41688;BME280;27371;42.686;23.362;2022-08-04T14:23:27;94913.13;;;29.99;29.49
41688;BME280;27371;42.686;23.362;2022-08-04T14:25:53;94900.69;;;29.90;28.95
41688;BME280;27371;42.686;23.362;2022-08-04T14:28:28;94908.03;;;29.84;29.10
41688;BME280;27371;42.686;23.362;2022-08-04T14:31:16;94902.66;;;29.88;29.47
41688;BME280;27371;42.686;23.362;2022-08-04T14:33:43;94909.97;;;30.05;29.73
41688;BME280;27371;42.686;23.362;2022-08-04T14:36:10;94910.59;;;29.91;29.66
41688;BME280;27371;42.686;23.362;2022-08-04T14:41:13;94911.34;;;29.68;30.56
41688;BME280;27371;42.686;23.362;2022-08-04T14:43:47;94912.56;;;29.77;29.89
41688;BME280;27371;42.686;23.362;2022-08-04T14:46:14;94922.09;;;29.84;28.29
41688;BME280;27371;42.686;23.362;2022-08-04T14:48:58;94913.19;;;29.64;27.93
41688;BME280;27371;42.686;23.362;2022-08-04T14:51:25;94911.84;;;29.65;28.09
41688;BME280;27371;42.686;23.362;2022-08-04T14:53:50;94907.91;;;29.58;28.17
41688;BME280;27371;42.686;23.362;2022-08-04T14:56:16;94909.97;;;29.58;28.93
41688;BME280;27371;42.686;23.362;2022-08-04T14:58:42;94898.38;;;29.51;28.53
41688;BME280;27371;42.686;23.362;2022-08-04T15:01:09;94907.78;;;29.56;28.34
41688;BME280;27371;42.686;23.362;2022-08-04T15:03:38;94908.41;;;29.66;27.91
41688;BME280;27371;42.686;23.362;2022-08-04T15:06:05;94907.28;;;29.60;27.87
41688;BME280;27371;42.686;23.362;2022-08-04T15:08:31;94904.13;;;29.42;28.37
41688;BME280;27371;42.686;23.362;2022-08-04T15:10:57;94890.69;;;29.28;28.04
41688;BME280;27371;42.686;23.362;2022-08-04T15:13:26;94890.69;;;29.28;28.04
41688;BME280;27371;42.686;23.362;2022-08-04T15:15:52;94904.72;;;29.28;28.29
41688;BME280;27371;42.686;23.362;2022-08-04T15:18:18;94894.94;;;29.18;28.26
41688;BME280;27371;42.686;23.362;2022-08-04T15:20:45;94887.97;;;29.07;28.81
41688;BME280;27371;42.686;23.362;2022-08-04T15:23:10;94895.66;;;29.06;29.37
41688;BME280;27371;42.686;23.362;2022-08-04T15:25:38;94892.72;;;29.04;29.35
41688;BME280;27371;42.686;23.362;2022-08-04T15:28:06;94892.63;;;29.14;29.72
41688;BME280;27371;42.686;23.362;2022-08-04T15:30:36;94883.97;;;29.22;30.22
41688;BME280;27371;42.686;23.362;2022-08-04T15:33:03;94893.94;;;29.25;29.99
41688;BME280;27371;42.686;23.362;2022-08-04T15:35:30;94886.28;;;29.25;30.25
41688;BME280;27371;42.686;23.362;2022-08-04T15:43:36;94884.94;;;29.26;31.03
41688;BME280;27371;42.686;23.362;2022-08-04T15:46:06;94884.81;;;29.24;31.03
41688;BME280;27371;42.686;23.362;2022-08-04T15:48:32;94889.34;;;29.29;31.29
41688;BME280;27371;42.686;23.362;2022-08-04T15:51:01;94892.88;;;29.30;30.70
41688;BME280;27371;42.686;23.362;2022-08-04T15:53:31;94894.22;;;29.29;31.04
41688;BME280;27371;42.686;23.362;2022-08-04T15:55:57;94894.94;;;29.29;31.07
41688;BME280;27371;42.686;23.362;2022-08-04T15:58:23;94888.47;;;29.27;31.26
41688;BME280;27371;42.686;23.362;2022-08-04T16:16:29;94884.84;;;29.48;32.65
41688;BME280;27371;42.686;23.362;2022-08-04T16:19:08;94875.56;;;29.45;32.36
41688;BME280;27371;42.686;23.362;2022-08-04T16:21:52;94880.81;;;29.39;32.08
41688;BME280;27371;42.686;23.362;2022-08-04T16:26:46;94887.03;;;29.49;34.02
41688;BME280;27371;42.686;23.362;2022-08-04T16:37:09;94893.44;;;29.17;31.01
41688;BME280;27371;42.686;23.362;2022-08-04T16:39:36;94879.41;;;29.05;31.26
41688;BME280;27371;42.686;23.362;2022-08-04T16:50:17;94896.88;;;28.70;32.15
41688;BME280;27371;42.686;23.362;2022-08-04T16:52:48;94888.75;;;28.53;33.35
41688;BME280;27371;42.686;23.362;2022-08-04T16:55:17;94891.47;;;28.41;33.55
41688;BME280;27371;42.686;23.362;2022-08-04T16:57:47;94898.16;;;28.36;32.64
41688;BME280;27371;42.686;23.362;2022-08-04T17:00:13;94895.69;;;28.30;32.59
41688;BME280;27371;42.686;23.362;2022-08-04T17:02:39;94904.50;;;28.15;32.87
41688;BME280;27371;42.686;23.362;2022-08-04T17:05:19;94895.91;;;28.01;32.67
41688;BME280;27371;42.686;23.362;2022-08-04T17:07:53;94888.47;;;27.84;32.96
41688;BME280;27371;42.686;23.362;2022-08-04T17:10:29;94897.63;;;27.85;33.46
41688;BME280;27371;42.686;23.362;2022-08-04T17:12:55;94906.44;;;27.81;33.83
41688;BME280;27371;42.686;23.362;2022-08-04T17:15:24;94910.16;;;27.74;33.62
41688;BME280;27371;42.686;23.362;2022-08-04T17:17:50;94909.94;;;27.60;34.17
41688;BME280;27371;42.686;23.362;2022-08-04T17:20:16;94911.72;;;27.56;34.17
41688;BME280;27371;42.686;23.362;2022-08-04T17:22:49;94903.38;;;27.46;34.36
41688;BME280;27371;42.686;23.362;2022-08-04T17:25:18;94910.13;;;27.43;34.66
41688;BME280;27371;42.686;23.362;2022-08-04T17:27:43;94904.44;;;27.31;34.96
41688;BME280;27371;42.686;23.362;2022-08-04T17:30:29;94914.16;;;27.30;35.04
41688;BME280;27371;42.686;23.362;2022-08-04T17:32:54;94900.66;;;27.17;34.96
41688;BME280;27371;42.686;23.362;2022-08-04T17:35:23;94913.00;;;27.14;34.95
41688;BME280;27371;42.686;23.362;2022-08-04T17:37:48;94899.66;;;27.02;35.51
41688;BME280;27371;42.686;23.362;2022-08-04T17:40:15;94918.63;;;27.04;35.02
41688;BME280;27371;42.686;23.362;2022-08-04T17:42:40;94918.81;;;26.96;35.37
41688;BME280;27371;42.686;23.362;2022-08-04T17:47:33;94918.66;;;26.94;35.54
41688;BME280;27371;42.686;23.362;2022-08-04T17:50:06;94924.53;;;26.88;35.90
41688;BME280;27371;42.686;23.362;2022-08-04T17:52:32;94927.19;;;26.86;35.77
41688;BME280;27371;42.686;23.362;2022-08-04T17:54:58;94923.09;;;26.78;35.99
41688;BME280;27371;42.686;23.362;2022-08-04T17:57:26;94920.00;;;26.74;36.16